sensor_id;sensor_type;location;lat;lon;timestamp;P1;durP1;ratioP1;P2;durP2;ratioP2
16326;SDS011;34812;49.846;9.610;2023-03-01T00:01:00;17.37;;;15.47;;
16326;SDS011;34812;49.846;9.610;2023-03-01T00:02:02;19.13;;;14.68;;
16326;SDS011;34812;49.846;9.610;2023-03-01T00:03:04;17.80;;;15.02;;
16326;SDS011;34812;49.846;9.610;2023-03-01T00:04:07;17.00;;;15.27;;
16326;SDS011;34812;49.846;9.610;2023-03-01T00:05:08;16.95;;;15.20;;
16326;SDS011;34812;49.846;9.610;2023-03-01T00:06:10;16.90;;;15.17;;
16326;SDS011;34812;49.846;9.610;2023-03-01T00:07:11;20.00;;;16.07;;
16326;SDS011;34812;49.846;9.610;2023-03-01T00:08:12;16.55;;;14.13;;
16326;SDS011;34812;49.846;9.610;2023-03-01T00:09:14;16.47;;;14.77;;
16326;SDS011;34812;49.846;9.610;2023-03-01T00:10:16;15.93;;;14.23;;
16326;SDS011;34812;49.846;9.610;2023-03-01T00:11:18;17.20;;;15.40;;
16326;SDS011;34812;49.846;9.610;2023-03-01T00:12:21;17.90;;;16.00;;
16326;SDS011;34812;49.846;9.610;2023-03-01T00:13:22;19.17;;;15.37;;
16326;SDS011;34812;49.846;9.610;2023-03-01T00:14:24;17.50;;;15.67;;
16326;SDS011;34812;49.846;9.610;2023-03-01T00:15:25;17.63;;;15.73;;
16326;SDS011;34812;49.846;9.610;2023-03-01T00:16:27;18.17;;;16.13;;
16326;SDS011;34812;49.846;9.610;2023-03-01T00:17:29;17.43;;;15.53;;
16326;SDS011;34812;49.846;9.610;2023-03-01T00:18:31;17.80;;;16.00;;
16326;SDS011;34812;49.846;9.610;2023-03-01T00:19:34;20.42;;;15.40;;
16326;SDS011;34812;49.846;9.610;2023-03-01T00:20:36;17.27;;;15.43;;
16326;SDS011;34812;49.846;9.610;2023-03-01T00:21:37;18.40;;;16.50;;
16326;SDS011;34812;49.846;9.610;2023-03-01T00:22:38;18.20;;;15.93;;
16326;SDS011;34812;49.846;9.610;2023-03-01T00:23:39;18.07;;;16.17;;
16326;SDS011;34812;49.846;9.610;2023-03-01T00:24:41;17.80;;;15.02;;
16326;SDS011;34812;49.846;9.610;2023-03-01T00:25:42;19.13;;;16.37;;
16326;SDS011;34812;49.846;9.610;2023-03-01T00:26:44;19.38;;;16.52;;
16326;SDS011;34812;49.846;9.610;2023-03-01T00:27:46;19.90;;;16.83;;
16326;SDS011;34812;49.846;9.610;2023-03-01T00:28:49;19.23;;;16.67;;
16326;SDS011;34812;49.846;9.610;2023-03-01T00:29:49;18.73;;;16.67;;
16326;SDS011;34812;49.846;9.610;2023-03-01T00:30:51;18.55;;;16.65;;
16326;SDS011;34812;49.846;9.610;2023-03-01T00:31:52;18.27;;;15.60;;
16326;SDS011;34812;49.846;9.610;2023-03-01T00:32:54;18.63;;;16.23;;
16326;SDS011;34812;49.846;9.610;2023-03-01T00:33:55;18.00;;;16.20;;
16326;SDS011;34812;49.846;9.610;2023-03-01T00:34:59;18.90;;;15.57;;
16326;SDS011;34812;49.846;9.610;2023-03-01T00:36:00;18.80;;;16.75;;
16326;SDS011;34812;49.846;9.610;2023-03-01T00:37:02;18.70;;;16.70;;
16326;SDS011;34812;49.846;9.610;2023-03-01T00:38:05;17.70;;;15.87;;
16326;SDS011;34812;49.846;9.610;2023-03-01T00:39:09;17.37;;;15.67;;
16326;SDS011;34812;49.846;9.610;2023-03-01T00:40:12;17.67;;;15.80;;
16326;SDS011;34812;49.846;9.610;2023-03-01T00:41:16;17.97;;;16.07;;
16326;SDS011;34812;49.846;9.610;2023-03-01T00:42:18;20.50;;;16.88;;
16326;SDS011;34812;49.846;9.610;2023-03-01T00:43:20;19.55;;;17.10;;
16326;SDS011;34812;49.846;9.610;2023-03-01T00:44:21;22.48;;;17.50;;
16326;SDS011;34812;49.846;9.610;2023-03-01T00:45:23;21.40;;;17.63;;
16326;SDS011;34812;49.846;9.610;2023-03-01T00:46:25;19.33;;;17.25;;
16326;SDS011;34812;49.846;9.610;2023-03-01T00:47:30;21.02;;;17.80;;
16326;SDS011;34812;49.846;9.610;2023-03-01T00:48:30;19.27;;;17.23;;
16326;SDS011;34812;49.846;9.610;2023-03-01T00:49:32;18.35;;;15.45;;
16326;SDS011;34812;49.846;9.610;2023-03-01T00:50:34;19.20;;;17.03;;
16326;SDS011;34812;49.846;9.610;2023-03-01T00:51:36;18.20;;;16.27;;
16326;SDS011;34812;49.846;9.610;2023-03-01T00:52:37;20.80;;;17.57;;
16326;SDS011;34812;49.846;9.610;2023-03-01T00:53:39;19.33;;;16.90;;
16326;SDS011;34812;49.846;9.610;2023-03-01T00:54:40;20.05;;;17.20;;
16326;SDS011;34812;49.846;9.610;2023-03-01T00:55:42;20.08;;;18.00;;
16326;SDS011;34812;49.846;9.610;2023-03-01T00:56:43;23.67;;;17.87;;
16326;SDS011;34812;49.846;9.610;2023-03-01T00:57:44;21.02;;;18.80;;
16326;SDS011;34812;49.846;9.610;2023-03-01T00:58:45;23.37;;;17.43;;
16326;SDS011;34812;49.846;9.610;2023-03-01T00:59:47;21.13;;;18.13;;
16326;SDS011;34812;49.846;9.610;2023-03-01T01:00:48;18.83;;;16.93;;
16326;SDS011;34812;49.846;9.610;2023-03-01T01:01:50;20.95;;;17.70;;
16326;SDS011;34812;49.846;9.610;2023-03-01T01:02:51;19.83;;;17.53;;
16326;SDS011;34812;49.846;9.610;2023-03-01T01:03:53;21.15;;;18.33;;
16326;SDS011;34812;49.846;9.610;2023-03-01T01:04:55;20.40;;;18.30;;
16326;SDS011;34812;49.846;9.610;2023-03-01T01:05:58;23.25;;;18.08;;
16326;SDS011;34812;49.846;9.610;2023-03-01T01:06:59;19.38;;;17.48;;
16326;SDS011;34812;49.846;9.610;2023-03-01T01:08:00;20.35;;;18.20;;
16326;SDS011;34812;49.846;9.610;2023-03-01T01:09:01;21.63;;;17.37;;
16326;SDS011;34812;49.846;9.610;2023-03-01T01:10:06;21.45;;;17.98;;
16326;SDS011;34812;49.846;9.610;2023-03-01T01:11:08;19.52;;;17.05;;
16326;SDS011;34812;49.846;9.610;2023-03-01T01:12:10;19.05;;;17.05;;
16326;SDS011;34812;49.846;9.610;2023-03-01T01:13:12;20.65;;;17.85;;
16326;SDS011;34812;49.846;9.610;2023-03-01T01:14:14;20.10;;;18.00;;
16326;SDS011;34812;49.846;9.610;2023-03-01T01:15:17;19.88;;;17.33;;
16326;SDS011;34812;49.846;9.610;2023-03-01T01:16:18;24.23;;;18.83;;
16326;SDS011;34812;49.846;9.610;2023-03-01T01:17:21;21.42;;;17.60;;
16326;SDS011;34812;49.846;9.610;2023-03-01T01:18:22;19.93;;;17.90;;
16326;SDS011;34812;49.846;9.610;2023-03-01T01:19:24;20.43;;;18.27;;
16326;SDS011;34812;49.846;9.610;2023-03-01T01:20:25;20.88;;;18.30;;
16326;SDS011;34812;49.846;9.610;2023-03-01T01:21:28;21.73;;;18.67;;
16326;SDS011;34812;49.846;9.610;2023-03-01T01:22:30;19.90;;;17.50;;
16326;SDS011;34812;49.846;9.610;2023-03-01T01:23:31;19.58;;;17.52;;
16326;SDS011;34812;49.846;9.610;2023-03-01T01:24:32;23.00;;;18.10;;
16326;SDS011;34812;49.846;9.610;2023-03-01T01:25:34;21.13;;;18.60;;
16326;SDS011;34812;49.846;9.610;2023-03-01T01:26:36;22.55;;;19.08;;
16326;SDS011;34812;49.846;9.610;2023-03-01T01:27:38;23.08;;;19.48;;
16326;SDS011;34812;49.846;9.610;2023-03-01T01:28:39;22.50;;;19.37;;
16326;SDS011;34812;49.846;9.610;2023-03-01T01:29:41;22.13;;;19.38;;
16326;SDS011;34812;49.846;9.610;2023-03-01T01:30:42;23.60;;;18.83;;
16326;SDS011;34812;49.846;9.610;2023-03-01T01:31:44;20.13;;;17.75;;
16326;SDS011;34812;49.846;9.610;2023-03-01T01:32:46;21.25;;;18.80;;
16326;SDS011;34812;49.846;9.610;2023-03-01T01:33:47;23.15;;;19.00;;
16326;SDS011;34812;49.846;9.610;2023-03-01T01:34:48;24.83;;;19.47;;
16326;SDS011;34812;49.846;9.610;2023-03-01T01:35:50;21.33;;;19.13;;
16326;SDS011;34812;49.846;9.610;2023-03-01T01:36:52;22.40;;;19.73;;
16326;SDS011;34812;49.846;9.610;2023-03-01T01:37:54;23.10;;;19.52;;
16326;SDS011;34812;49.846;9.610;2023-03-01T01:38:55;23.27;;;20.17;;
16326;SDS011;34812;49.846;9.610;2023-03-01T01:39:57;27.60;;;20.45;;
16326;SDS011;34812;49.846;9.610;2023-03-01T01:40:58;26.98;;;20.48;;
16326;SDS011;34812;49.846;9.610;2023-03-01T01:42:00;24.63;;;20.65;;
16326;SDS011;34812;49.846;9.610;2023-03-01T01:43:01;22.75;;;19.02;;
16326;SDS011;34812;49.846;9.610;2023-03-01T01:44:11;23.33;;;20.45;;
16326;SDS011;34812;49.846;9.610;2023-03-01T01:45:24;25.75;;;19.55;;
16326;SDS011;34812;49.846;9.610;2023-03-01T01:46:30;25.58;;;20.48;;
16326;SDS011;34812;49.846;9.610;2023-03-01T01:47:32;21.73;;;18.25;;
16326;SDS011;34812;49.846;9.610;2023-03-01T01:48:37;22.15;;;19.58;;
16326;SDS011;34812;49.846;9.610;2023-03-01T01:49:41;24.33;;;20.13;;
16326;SDS011;34812;49.846;9.610;2023-03-01T01:50:45;25.88;;;20.30;;
16326;SDS011;34812;49.846;9.610;2023-03-01T01:51:56;24.17;;;19.35;;
16326;SDS011;34812;49.846;9.610;2023-03-01T01:53:02;23.50;;;19.92;;
16326;SDS011;34812;49.846;9.610;2023-03-01T01:54:07;23.65;;;19.20;;
16326;SDS011;34812;49.846;9.610;2023-03-01T01:55:14;21.70;;;19.40;;
16326;SDS011;34812;49.846;9.610;2023-03-01T01:56:17;22.58;;;19.50;;
16326;SDS011;34812;49.846;9.610;2023-03-01T01:57:22;22.05;;;18.77;;
16326;SDS011;34812;49.846;9.610;2023-03-01T01:58:27;23.88;;;19.95;;
16326;SDS011;34812;49.846;9.610;2023-03-01T01:59:30;22.75;;;18.88;;
16326;SDS011;34812;49.846;9.610;2023-03-01T02:00:33;21.38;;;19.05;;
16326;SDS011;34812;49.846;9.610;2023-03-01T02:01:33;20.30;;;18.00;;
16326;SDS011;34812;49.846;9.610;2023-03-01T02:02:35;22.45;;;18.85;;
16326;SDS011;34812;49.846;9.610;2023-03-01T02:03:38;23.90;;;19.75;;
16326;SDS011;34812;49.846;9.610;2023-03-01T02:04:42;25.33;;;19.85;;
16326;SDS011;34812;49.846;9.610;2023-03-01T02:05:45;23.90;;;20.92;;
16326;SDS011;34812;49.846;9.610;2023-03-01T02:06:53;22.65;;;19.38;;
16326;SDS011;34812;49.846;9.610;2023-03-01T02:08:00;25.05;;;19.67;;
16326;SDS011;34812;49.846;9.610;2023-03-01T02:09:03;23.83;;;19.98;;
16326;SDS011;34812;49.846;9.610;2023-03-01T02:10:08;23.85;;;21.27;;
16326;SDS011;34812;49.846;9.610;2023-03-01T02:11:11;24.88;;;20.27;;
16326;SDS011;34812;49.846;9.610;2023-03-01T02:12:14;23.75;;;19.98;;
16326;SDS011;34812;49.846;9.610;2023-03-01T02:13:18;24.48;;;20.77;;
16326;SDS011;34812;49.846;9.610;2023-03-01T02:14:19;26.23;;;21.33;;
16326;SDS011;34812;49.846;9.610;2023-03-01T02:15:21;22.88;;;20.40;;
16326;SDS011;34812;49.846;9.610;2023-03-01T02:16:22;25.52;;;20.08;;
16326;SDS011;34812;49.846;9.610;2023-03-01T02:17:24;24.38;;;20.52;;
16326;SDS011;34812;49.846;9.610;2023-03-01T02:18:25;25.05;;;20.50;;
16326;SDS011;34812;49.846;9.610;2023-03-01T02:19:31;25.75;;;21.35;;
16326;SDS011;34812;49.846;9.610;2023-03-01T02:20:44;25.08;;;19.75;;
16326;SDS011;34812;49.846;9.610;2023-03-01T02:22:01;23.08;;;18.63;;
16326;SDS011;34812;49.846;9.610;2023-03-01T02:23:06;23.77;;;20.05;;
16326;SDS011;34812;49.846;9.610;2023-03-01T02:24:11;27.70;;;21.52;;
16326;SDS011;34812;49.846;9.610;2023-03-01T02:25:27;26.63;;;20.92;;
16326;SDS011;34812;49.846;9.610;2023-03-01T02:26:34;23.88;;;19.80;;
16326;SDS011;34812;49.846;9.610;2023-03-01T02:27:42;24.60;;;20.48;;
16326;SDS011;34812;49.846;9.610;2023-03-01T02:28:50;25.77;;;21.38;;
16326;SDS011;34812;49.846;9.610;2023-03-01T02:29:51;22.77;;;19.38;;
16326;SDS011;34812;49.846;9.610;2023-03-01T02:30:53;25.58;;;21.23;;
16326;SDS011;34812;49.846;9.610;2023-03-01T02:32:13;24.00;;;20.77;;
16326;SDS011;34812;49.846;9.610;2023-03-01T02:33:16;25.90;;;20.98;;
16326;SDS011;34812;49.846;9.610;2023-03-01T02:34:17;24.30;;;20.77;;
16326;SDS011;34812;49.846;9.610;2023-03-01T02:35:21;26.40;;;21.00;;
16326;SDS011;34812;49.846;9.610;2023-03-01T02:36:23;22.87;;;19.53;;
16326;SDS011;34812;49.846;9.610;2023-03-01T02:37:27;23.63;;;20.75;;
16326;SDS011;34812;49.846;9.610;2023-03-01T02:38:29;23.40;;;20.50;;
16326;SDS011;34812;49.846;9.610;2023-03-01T02:39:32;25.90;;;21.23;;
16326;SDS011;34812;49.846;9.610;2023-03-01T02:40:43;20.65;;;18.27;;
16326;SDS011;34812;49.846;9.610;2023-03-01T02:41:46;27.40;;;21.42;;
16326;SDS011;34812;49.846;9.610;2023-03-01T02:42:50;22.60;;;19.40;;
16326;SDS011;34812;49.846;9.610;2023-03-01T02:43:55;23.80;;;19.80;;
16326;SDS011;34812;49.846;9.610;2023-03-01T02:44:57;23.92;;;20.15;;
16326;SDS011;34812;49.846;9.610;2023-03-01T02:45:58;24.20;;;19.73;;
16326;SDS011;34812;49.846;9.610;2023-03-01T02:47:04;22.00;;;19.25;;
16326;SDS011;34812;49.846;9.610;2023-03-01T02:48:06;22.30;;;18.80;;
16326;SDS011;34812;49.846;9.610;2023-03-01T02:49:16;22.45;;;20.05;;
16326;SDS011;34812;49.846;9.610;2023-03-01T02:50:26;21.88;;;19.58;;
16326;SDS011;34812;49.846;9.610;2023-03-01T02:51:47;22.42;;;19.00;;
16326;SDS011;34812;49.846;9.610;2023-03-01T02:52:56;21.45;;;18.25;;
16326;SDS011;34812;49.846;9.610;2023-03-01T02:54:06;21.35;;;19.05;;
16326;SDS011;34812;49.846;9.610;2023-03-01T02:55:14;27.40;;;21.15;;
16326;SDS011;34812;49.846;9.610;2023-03-01T02:56:17;24.80;;;19.88;;
16326;SDS011;34812;49.846;9.610;2023-03-01T02:57:19;21.55;;;19.10;;
16326;SDS011;34812;49.846;9.610;2023-03-01T02:58:22;24.75;;;20.42;;
16326;SDS011;34812;49.846;9.610;2023-03-01T02:59:27;22.88;;;19.05;;
16326;SDS011;34812;49.846;9.610;2023-03-01T03:00:31;23.17;;;20.42;;
16326;SDS011;34812;49.846;9.610;2023-03-01T03:01:39;24.17;;;19.10;;
16326;SDS011;34812;49.846;9.610;2023-03-01T03:02:42;23.42;;;19.00;;
16326;SDS011;34812;49.846;9.610;2023-03-01T03:03:54;22.88;;;19.42;;
16326;SDS011;34812;49.846;9.610;2023-03-01T03:04:55;22.40;;;18.33;;
16326;SDS011;34812;49.846;9.610;2023-03-01T03:05:57;20.48;;;18.33;;
16326;SDS011;34812;49.846;9.610;2023-03-01T03:06:58;23.07;;;19.13;;
16326;SDS011;34812;49.846;9.610;2023-03-01T03:08:01;22.38;;;18.20;;
16326;SDS011;34812;49.846;9.610;2023-03-01T03:09:06;22.63;;;19.23;;
16326;SDS011;34812;49.846;9.610;2023-03-01T03:10:08;21.48;;;19.17;;
16326;SDS011;34812;49.846;9.610;2023-03-01T03:11:11;22.83;;;19.30;;
16326;SDS011;34812;49.846;9.610;2023-03-01T03:12:13;22.30;;;19.90;;
16326;SDS011;34812;49.846;9.610;2023-03-01T03:13:14;21.37;;;19.00;;
16326;SDS011;34812;49.846;9.610;2023-03-01T03:14:17;22.27;;;18.83;;
16326;SDS011;34812;49.846;9.610;2023-03-01T03:15:22;22.67;;;19.58;;
16326;SDS011;34812;49.846;9.610;2023-03-01T03:16:24;23.90;;;18.77;;
16326;SDS011;34812;49.846;9.610;2023-03-01T03:17:25;22.43;;;19.13;;
16326;SDS011;34812;49.846;9.610;2023-03-01T03:18:27;21.95;;;18.60;;
16326;SDS011;34812;49.846;9.610;2023-03-01T03:19:28;21.77;;;19.40;;
16326;SDS011;34812;49.846;9.610;2023-03-01T03:20:30;21.95;;;18.95;;
16326;SDS011;34812;49.846;9.610;2023-03-01T03:21:31;20.80;;;18.52;;
16326;SDS011;34812;49.846;9.610;2023-03-01T03:22:33;22.35;;;19.20;;
16326;SDS011;34812;49.846;9.610;2023-03-01T03:23:34;21.97;;;18.43;;
16326;SDS011;34812;49.846;9.610;2023-03-01T03:24:36;21.27;;;18.95;;
16326;SDS011;34812;49.846;9.610;2023-03-01T03:25:38;21.92;;;19.35;;
16326;SDS011;34812;49.846;9.610;2023-03-01T03:26:40;22.58;;;19.27;;
16326;SDS011;34812;49.846;9.610;2023-03-01T03:27:42;22.90;;;19.83;;
16326;SDS011;34812;49.846;9.610;2023-03-01T03:28:44;23.63;;;18.65;;
16326;SDS011;34812;49.846;9.610;2023-03-01T03:29:46;23.83;;;20.92;;
16326;SDS011;34812;49.846;9.610;2023-03-01T03:30:49;20.83;;;18.58;;
16326;SDS011;34812;49.846;9.610;2023-03-01T03:31:51;22.48;;;19.10;;
16326;SDS011;34812;49.846;9.610;2023-03-01T03:32:52;22.85;;;19.13;;
16326;SDS011;34812;49.846;9.610;2023-03-01T03:33:53;23.20;;;19.70;;
16326;SDS011;34812;49.846;9.610;2023-03-01T03:34:56;24.85;;;19.40;;
16326;SDS011;34812;49.846;9.610;2023-03-01T03:35:56;22.60;;;19.13;;
16326;SDS011;34812;49.846;9.610;2023-03-01T03:36:58;23.45;;;19.27;;
16326;SDS011;34812;49.846;9.610;2023-03-01T03:38:00;22.60;;;18.70;;
16326;SDS011;34812;49.846;9.610;2023-03-01T03:39:06;22.48;;;19.08;;
16326;SDS011;34812;49.846;9.610;2023-03-01T03:40:07;22.90;;;19.00;;
16326;SDS011;34812;49.846;9.610;2023-03-01T03:41:15;21.13;;;17.60;;
16326;SDS011;34812;49.846;9.610;2023-03-01T03:42:16;22.60;;;18.48;;
16326;SDS011;34812;49.846;9.610;2023-03-01T03:43:18;25.08;;;18.33;;
16326;SDS011;34812;49.846;9.610;2023-03-01T03:44:21;22.95;;;19.20;;
16326;SDS011;34812;49.846;9.610;2023-03-01T03:45:23;22.00;;;18.38;;
16326;SDS011;34812;49.846;9.610;2023-03-01T03:46:25;23.20;;;19.53;;
16326;SDS011;34812;49.846;9.610;2023-03-01T03:47:27;21.58;;;18.15;;
16326;SDS011;34812;49.846;9.610;2023-03-01T03:48:27;22.40;;;19.03;;
16326;SDS011;34812;49.846;9.610;2023-03-01T03:49:29;21.30;;;19.00;;
16326;SDS011;34812;49.846;9.610;2023-03-01T03:50:30;20.43;;;17.80;;
16326;SDS011;34812;49.846;9.610;2023-03-01T03:51:32;22.02;;;18.77;;
16326;SDS011;34812;49.846;9.610;2023-03-01T03:52:32;22.97;;;19.47;;
16326;SDS011;34812;49.846;9.610;2023-03-01T03:53:34;23.00;;;19.50;;
16326;SDS011;34812;49.846;9.610;2023-03-01T03:54:35;25.57;;;19.87;;
16326;SDS011;34812;49.846;9.610;2023-03-01T03:55:37;24.25;;;19.42;;
16326;SDS011;34812;49.846;9.610;2023-03-01T03:56:39;23.60;;;20.60;;
16326;SDS011;34812;49.846;9.610;2023-03-01T03:57:40;23.35;;;20.13;;
16326;SDS011;34812;49.846;9.610;2023-03-01T03:58:41;23.23;;;20.50;;
16326;SDS011;34812;49.846;9.610;2023-03-01T03:59:43;20.77;;;18.33;;
16326;SDS011;34812;49.846;9.610;2023-03-01T04:00:44;23.23;;;19.20;;
16326;SDS011;34812;49.846;9.610;2023-03-01T04:01:48;26.35;;;20.38;;
16326;SDS011;34812;49.846;9.610;2023-03-01T04:02:50;20.67;;;17.65;;
16326;SDS011;34812;49.846;9.610;2023-03-01T04:03:51;21.10;;;18.60;;
16326;SDS011;34812;49.846;9.610;2023-03-01T04:04:54;22.10;;;18.52;;
16326;SDS011;34812;49.846;9.610;2023-03-01T04:05:56;22.37;;;19.33;;
16326;SDS011;34812;49.846;9.610;2023-03-01T04:06:59;23.88;;;19.77;;
16326;SDS011;34812;49.846;9.610;2023-03-01T04:07:59;26.30;;;20.70;;
16326;SDS011;34812;49.846;9.610;2023-03-01T04:09:06;21.63;;;19.33;;
16326;SDS011;34812;49.846;9.610;2023-03-01T04:10:09;24.63;;;19.98;;
16326;SDS011;34812;49.846;9.610;2023-03-01T04:11:12;25.33;;;20.38;;
16326;SDS011;34812;49.846;9.610;2023-03-01T04:12:29;27.02;;;19.77;;
16326;SDS011;34812;49.846;9.610;2023-03-01T04:13:30;23.87;;;19.70;;
16326;SDS011;34812;49.846;9.610;2023-03-01T04:14:32;22.60;;;19.60;;
16326;SDS011;34812;49.846;9.610;2023-03-01T04:15:33;26.75;;;19.77;;
16326;SDS011;34812;49.846;9.610;2023-03-01T04:16:35;22.35;;;19.23;;
16326;SDS011;34812;49.846;9.610;2023-03-01T04:17:38;21.70;;;19.03;;
16326;SDS011;34812;49.846;9.610;2023-03-01T04:18:40;22.20;;;19.60;;
16326;SDS011;34812;49.846;9.610;2023-03-01T04:19:40;22.13;;;19.70;;
16326;SDS011;34812;49.846;9.610;2023-03-01T04:20:44;22.83;;;19.58;;
16326;SDS011;34812;49.846;9.610;2023-03-01T04:21:45;23.20;;;20.70;;
16326;SDS011;34812;49.846;9.610;2023-03-01T04:22:47;23.17;;;19.30;;
16326;SDS011;34812;49.846;9.610;2023-03-01T04:23:47;25.63;;;19.23;;
16326;SDS011;34812;49.846;9.610;2023-03-01T04:24:52;22.17;;;19.67;;
16326;SDS011;34812;49.846;9.610;2023-03-01T04:25:54;24.43;;;20.03;;
16326;SDS011;34812;49.846;9.610;2023-03-01T04:26:57;22.10;;;18.83;;
16326;SDS011;34812;49.846;9.610;2023-03-01T04:27:57;21.10;;;18.90;;
16326;SDS011;34812;49.846;9.610;2023-03-01T04:28:59;26.67;;;20.13;;
16326;SDS011;34812;49.846;9.610;2023-03-01T04:30:01;23.17;;;19.85;;
16326;SDS011;34812;49.846;9.610;2023-03-01T04:31:03;22.70;;;19.35;;
16326;SDS011;34812;49.846;9.610;2023-03-01T04:32:13;22.25;;;19.13;;
16326;SDS011;34812;49.846;9.610;2023-03-01T04:33:17;22.35;;;18.02;;
16326;SDS011;34812;49.846;9.610;2023-03-01T04:34:19;22.63;;;18.80;;
16326;SDS011;34812;49.846;9.610;2023-03-01T04:35:20;21.67;;;17.83;;
16326;SDS011;34812;49.846;9.610;2023-03-01T04:36:22;22.95;;;19.30;;
16326;SDS011;34812;49.846;9.610;2023-03-01T04:37:24;22.92;;;19.75;;
16326;SDS011;34812;49.846;9.610;2023-03-01T04:38:26;23.05;;;18.92;;
16326;SDS011;34812;49.846;9.610;2023-03-01T04:39:27;20.50;;;18.17;;
16326;SDS011;34812;49.846;9.610;2023-03-01T04:40:29;24.25;;;20.10;;
16326;SDS011;34812;49.846;9.610;2023-03-01T04:41:30;24.37;;;19.47;;
16326;SDS011;34812;49.846;9.610;2023-03-01T04:42:31;21.40;;;18.95;;
16326;SDS011;34812;49.846;9.610;2023-03-01T04:43:32;27.70;;;20.57;;
16326;SDS011;34812;49.846;9.610;2023-03-01T04:44:35;23.95;;;19.48;;
16326;SDS011;34812;49.846;9.610;2023-03-01T04:45:36;24.27;;;19.90;;
16326;SDS011;34812;49.846;9.610;2023-03-01T04:46:38;22.08;;;18.65;;
16326;SDS011;34812;49.846;9.610;2023-03-01T04:47:39;22.70;;;20.30;;
16326;SDS011;34812;49.846;9.610;2023-03-01T04:48:44;21.75;;;19.33;;
16326;SDS011;34812;49.846;9.610;2023-03-01T04:49:46;24.02;;;20.13;;
16326;SDS011;34812;49.846;9.610;2023-03-01T04:50:48;23.50;;;20.42;;
16326;SDS011;34812;49.846;9.610;2023-03-01T04:51:49;24.37;;;19.07;;
16326;SDS011;34812;49.846;9.610;2023-03-01T04:52:51;21.15;;;18.63;;
16326;SDS011;34812;49.846;9.610;2023-03-01T04:53:52;21.50;;;18.67;;
16326;SDS011;34812;49.846;9.610;2023-03-01T04:54:53;23.95;;;18.52;;
16326;SDS011;34812;49.846;9.610;2023-03-01T04:55:54;23.40;;;19.07;;
16326;SDS011;34812;49.846;9.610;2023-03-01T04:56:57;25.38;;;19.85;;
16326;SDS011;34812;49.846;9.610;2023-03-01T04:57:57;24.77;;;19.50;;
16326;SDS011;34812;49.846;9.610;2023-03-01T04:58:59;22.35;;;18.58;;
16326;SDS011;34812;49.846;9.610;2023-03-01T05:00:00;20.87;;;18.00;;
16326;SDS011;34812;49.846;9.610;2023-03-01T05:01:19;21.70;;;18.40;;
16326;SDS011;34812;49.846;9.610;2023-03-01T05:02:20;22.17;;;18.10;;
16326;SDS011;34812;49.846;9.610;2023-03-01T05:03:22;22.45;;;18.90;;
16326;SDS011;34812;49.846;9.610;2023-03-01T05:04:24;20.27;;;17.87;;
16326;SDS011;34812;49.846;9.610;2023-03-01T05:05:27;21.00;;;18.73;;
16326;SDS011;34812;49.846;9.610;2023-03-01T05:06:29;24.02;;;18.02;;
16326;SDS011;34812;49.846;9.610;2023-03-01T05:07:30;23.13;;;18.65;;
16326;SDS011;34812;49.846;9.610;2023-03-01T05:08:31;21.43;;;18.47;;
16326;SDS011;34812;49.846;9.610;2023-03-01T05:09:34;22.00;;;19.00;;
16326;SDS011;34812;49.846;9.610;2023-03-01T05:10:35;21.37;;;18.17;;
16326;SDS011;34812;49.846;9.610;2023-03-01T05:11:38;23.00;;;18.38;;
16326;SDS011;34812;49.846;9.610;2023-03-01T05:12:39;21.53;;;18.37;;
16326;SDS011;34812;49.846;9.610;2023-03-01T05:13:41;22.42;;;17.92;;
16326;SDS011;34812;49.846;9.610;2023-03-01T05:14:43;22.47;;;18.83;;
16326;SDS011;34812;49.846;9.610;2023-03-01T05:15:44;20.37;;;17.90;;
16326;SDS011;34812;49.846;9.610;2023-03-01T05:16:45;24.42;;;19.25;;
16326;SDS011;34812;49.846;9.610;2023-03-01T05:17:46;20.43;;;18.23;;
16326;SDS011;34812;49.846;9.610;2023-03-01T05:18:48;20.02;;;18.02;;
16326;SDS011;34812;49.846;9.610;2023-03-01T05:19:51;21.75;;;18.52;;
16326;SDS011;34812;49.846;9.610;2023-03-01T05:20:55;23.52;;;19.13;;
16326;SDS011;34812;49.846;9.610;2023-03-01T05:22:04;21.57;;;17.70;;
16326;SDS011;34812;49.846;9.610;2023-03-01T05:23:05;20.93;;;17.60;;
16326;SDS011;34812;49.846;9.610;2023-03-01T05:24:07;20.83;;;18.48;;
16326;SDS011;34812;49.846;9.610;2023-03-01T05:25:11;20.33;;;18.20;;
16326;SDS011;34812;49.846;9.610;2023-03-01T05:26:14;22.85;;;17.90;;
16326;SDS011;34812;49.846;9.610;2023-03-01T05:27:17;24.05;;;17.65;;
16326;SDS011;34812;49.846;9.610;2023-03-01T05:28:18;20.43;;;17.00;;
16326;SDS011;34812;49.846;9.610;2023-03-01T05:29:21;19.27;;;17.20;;
16326;SDS011;34812;49.846;9.610;2023-03-01T05:30:25;19.33;;;16.98;;
16326;SDS011;34812;49.846;9.610;2023-03-01T05:31:27;18.97;;;16.97;;
16326;SDS011;34812;49.846;9.610;2023-03-01T05:32:28;19.85;;;17.45;;
16326;SDS011;34812;49.846;9.610;2023-03-01T05:33:32;20.42;;;17.65;;
16326;SDS011;34812;49.846;9.610;2023-03-01T05:34:33;19.27;;;17.27;;
16326;SDS011;34812;49.846;9.610;2023-03-01T05:35:38;22.45;;;18.77;;
16326;SDS011;34812;49.846;9.610;2023-03-01T05:36:39;20.73;;;17.53;;
16326;SDS011;34812;49.846;9.610;2023-03-01T05:37:41;20.05;;;17.48;;
16326;SDS011;34812;49.846;9.610;2023-03-01T05:38:43;20.33;;;17.75;;
16326;SDS011;34812;49.846;9.610;2023-03-01T05:39:44;18.65;;;16.65;;
16326;SDS011;34812;49.846;9.610;2023-03-01T05:40:46;20.40;;;17.83;;
16326;SDS011;34812;49.846;9.610;2023-03-01T05:41:51;19.92;;;17.10;;
16326;SDS011;34812;49.846;9.610;2023-03-01T05:42:54;19.80;;;17.58;;
16326;SDS011;34812;49.846;9.610;2023-03-01T05:43:56;20.50;;;17.58;;
16326;SDS011;34812;49.846;9.610;2023-03-01T05:44:57;20.77;;;17.10;;
16326;SDS011;34812;49.846;9.610;2023-03-01T05:45:59;18.77;;;16.88;;
16326;SDS011;34812;49.846;9.610;2023-03-01T05:47:00;23.73;;;17.77;;
16326;SDS011;34812;49.846;9.610;2023-03-01T05:48:01;23.15;;;19.10;;
16326;SDS011;34812;49.846;9.610;2023-03-01T05:49:03;21.35;;;19.08;;
16326;SDS011;34812;49.846;9.610;2023-03-01T05:50:05;21.08;;;18.40;;
16326;SDS011;34812;49.846;9.610;2023-03-01T05:51:08;18.88;;;16.88;;
16326;SDS011;34812;49.846;9.610;2023-03-01T05:52:10;18.85;;;16.92;;
16326;SDS011;34812;49.846;9.610;2023-03-01T05:53:11;19.37;;;17.17;;
16326;SDS011;34812;49.846;9.610;2023-03-01T05:54:15;20.77;;;18.50;;
16326;SDS011;34812;49.846;9.610;2023-03-01T05:55:16;19.00;;;17.00;;
16326;SDS011;34812;49.846;9.610;2023-03-01T05:56:19;18.98;;;16.98;;
16326;SDS011;34812;49.846;9.610;2023-03-01T05:57:22;18.95;;;16.67;;
16326;SDS011;34812;49.846;9.610;2023-03-01T05:58:24;18.73;;;16.67;;
16326;SDS011;34812;49.846;9.610;2023-03-01T05:59:25;20.08;;;17.15;;
16326;SDS011;34812;49.846;9.610;2023-03-01T06:00:27;19.37;;;17.27;;
16326;SDS011;34812;49.846;9.610;2023-03-01T06:01:29;19.63;;;17.20;;
16326;SDS011;34812;49.846;9.610;2023-03-01T06:02:30;19.33;;;17.23;;
16326;SDS011;34812;49.846;9.610;2023-03-01T06:03:32;18.27;;;16.37;;
16326;SDS011;34812;49.846;9.610;2023-03-01T06:04:33;19.37;;;17.37;;
16326;SDS011;34812;49.846;9.610;2023-03-01T06:05:35;20.03;;;17.50;;
16326;SDS011;34812;49.846;9.610;2023-03-01T06:06:37;18.57;;;16.63;;
16326;SDS011;34812;49.846;9.610;2023-03-01T06:07:39;19.13;;;17.00;;